Piedmont, Alabama
Current Conditions -  °F | °C
As of 10:53 PM on Friday 28 Nov 2014 (Local Time) from KANB Reporting Station
Clear Clear  
Wind Chill: 32°   Ceiling: Unl
Heat Index: 32°   Visibility: 10mi
Dew Point: 25°   Wind: 3mph
Humidity: 75%   Direction: 40°NE
Pressure: 30.26"   Gusts: NA
Location:  33.92°N, 85.61°W
Report Text: KANB 290453Z AUTO 04003KT 10SM CLR 00/M04 A3026 RMK AO2 SLP258 T00001039
Loading
Personal Weather Stations






























Interactive Weather Map New forecast layout! Learn more

10-Day Weather Forecast

Advertisements
Track Severe Weather on mobile